Cabinda, Angola
Current Conditions -  °F | °C
As of 4:00 PM on Friday 24 Oct 2014 (Local Time) from FCPP Reporting Station
Overcast Overcast  
Wind Chill: 81°   Ceiling: 2600
Heat Index: 85°   Visibility: 6mi
Dew Point: 72°   Wind: 13mph
Humidity: 74%   Direction: 170°S
Pressure: 29.83"   Gusts: NA
Location:  5.55°S, 12.19°E
Report Text: FCPP 241500Z 17011KT 9999 SCT013 OVC026 27/22 Q1010 NOSIG
Loading
Personal Weather Stations






























Interactive Weather Map
Tropical Storm Tracking
New forecast layout! Learn more

10-Day Weather Forecast

Advertisements
Track Severe Weather on mobile